Ayr, North Dakota
Current Conditions -  °F | °C
As of 4:55 PM on Friday 28 Nov 2014 (Local Time) from KBAC Reporting Station
Broken Clouds Broken Clouds  
Wind Chill:   Ceiling: 8500
Heat Index: 14°   Visibility: 10mi
Dew Point: 12°   Wind: 9mph
Humidity: 93%   Direction: 120°ESE
Pressure: 29.7"   Gusts: NA
Location:  47.04°N, 97.49°W
Report Text: KBAC 282255Z AUTO 12008KT 10SM FEW013 BKN085 M10/M11 A2970 RMK AO2
Loading
Personal Weather Stations






























Interactive Weather Map New forecast layout! Learn more

10-Day Weather Forecast

Advertisements
Track Severe Weather on mobile